Desert Hot Springs, CA (92240)

12:33 AM PDT on May 07, 2015 (GMT -0700)
Wardman Park | | Change Station
CLOSE
Current Station
Personal Weather Station
Location: Desert Hot Springs, CA
Elevation: 1214 ft
Nearby Weather Stations
Active Advisory: Wind Advisory

Elev 1214 ft 33.97 °N, 116.50 °W | Updated 2 seconds ago

Partly Cloudy
Partly Cloudy
59.4 °F
Feels Like 59.4 °F
N
11.4
Wind Variable Wind from WSW
Gusts 17.4 mph

Today
High -- | Low -- °F
--% Chance of Precip.
Yesterday
High -- | Low -- °F
Precip. -- in
5:51 AM 7:34 PM
Waning Gibbous, 90% visible
Pressure 29.70 in
Visibility 10.0 miles
Clouds Clear
Dew Point 49 °F
Humidity 68%
Rainfall 0.00 in
Snow Depth Not available.
UV 0.0 out of 12
Pollen 6.00 out of 12
Air Quality Not available.
Flu Activity Sporadic
METAR KPSP 070653Z 00000KT 10SM CLR 21/04 A2970 RMK AO2 SLP055 T02060044

More Conditions Fewer Conditions

Pressure 29.70 in
Visibility 10.0 miles
Clouds Clear
Dew Point 49 °F
Humidity 68%
Rainfall 0.00 in
Snow Depth Not available.
UV 0.0 out of 12
Pollen 6.00 out of 12
Air Quality Not available.
Flu Activity Sporadic
METAR KPSP 070653Z 00000KT 10SM CLR 21/04 A2970 RMK AO2 SLP055 T02060044

More Conditions Fewer Conditions

10-Day Weather Forecast

Almanac

Astronomy

May. 07, 2015 Rise Set
Actual Time
Civil Twilight
Nautical Twilight
Astronomical Twilight
Moon
Length of Visible Light
Length of Day
Tomorrow will be .
, % of the Moon is Illuminated

Today's Extremes

State Highs State Lows

Community

WunderPhotos

Upload Photos

1,819,126 photos uploaded!

WunderBlogs® & News

Nearby

Air Quality

  Air Quality AQ Index Pollutant
Not available.

Snow Depth

Station Depth Elevation

Earthquake Activity

City Distance Mag. Time & Date
Minimum magnitude displayed is 2.5.

Coastal Water Temperatures

Place Temperature

Stations

Nearby Weather Stations

Station Location Temp. Windchill Dew Point Humidity Wind Precip. Elev Updated Type
                   
Wind Advisory
Statement as of 9:04 PM PDT on May 06, 2015

... Wind Advisory remains in effect until 3 am PDT Friday...

* winds... areas of west winds 20 to 30 mph with gusts to 45 mph.
Isolated gusts to 55 mph... mainly in the northern Coachella
Valley.

* Timing... strongest winds each day are expected for late
afternoon through late evening.

* Visibility... locally reduced in blowing sand and blowing dust
at times.

* Impacts... driving could be hazardous for people driving high
profile vehicles.

Precautionary/preparedness actions...

A Wind Advisory means that winds of 35 mph are expected. Winds
this strong can make driving difficult... especially for high
profile vehicles. Use extra caution.


Jt